createdAt,value
2019-02-10T00:00:16.820Z,7.60
2019-02-10T00:01:16.779Z,6.50
2019-02-10T00:02:16.717Z,7.70
2019-02-10T00:03:16.689Z,5.60
2019-02-10T00:04:16.681Z,6.40
2019-02-10T00:05:16.660Z,6.40
2019-02-10T00:06:24.344Z,7.20
2019-02-10T00:07:17.719Z,7.70
2019-02-10T00:08:16.648Z,6.70
2019-02-10T00:09:16.647Z,8.90
2019-02-10T00:10:16.597Z,6.30
2019-02-10T00:11:16.618Z,7.00
2019-02-10T00:12:16.624Z,6.70
2019-02-10T00:13:16.596Z,7.40
2019-02-10T00:14:16.605Z,6.90
2019-02-10T00:15:16.600Z,8.00
2019-02-10T00:16:16.675Z,7.10
2019-02-10T00:17:16.577Z,6.90
2019-02-10T00:18:16.572Z,7.10
2019-02-10T00:19:16.535Z,6.40
2019-02-10T00:20:16.564Z,7.20
2019-02-10T00:21:16.545Z,6.00
2019-02-10T00:22:16.725Z,7.70
2019-02-10T00:23:16.476Z,6.40
2019-02-10T00:24:16.505Z,6.30
2019-02-10T00:25:16.462Z,7.90
2019-02-10T00:26:16.467Z,6.30
2019-02-10T00:27:16.449Z,6.00
2019-02-10T00:28:16.426Z,6.70
2019-02-10T00:29:16.437Z,6.60
2019-02-10T00:30:16.407Z,8.80
2019-02-10T00:31:16.404Z,8.60
2019-02-10T00:32:16.372Z,6.00
2019-02-10T00:33:16.362Z,7.00
2019-02-10T00:34:16.409Z,9.80
2019-02-10T00:35:16.385Z,7.10
2019-02-10T00:36:16.374Z,7.50
2019-02-10T00:37:16.361Z,7.50
2019-02-10T00:38:16.322Z,6.70
2019-02-10T00:39:16.348Z,6.30
2019-02-10T00:40:16.327Z,8.20
2019-02-10T00:41:16.329Z,8.10
2019-02-10T00:42:16.302Z,6.80
2019-02-10T00:43:16.284Z,6.90
2019-02-10T00:44:16.330Z,7.30
2019-02-10T00:45:16.245Z,6.50
2019-02-10T00:46:16.278Z,8.30
2019-02-10T00:47:16.286Z,5.60
2019-02-10T00:48:16.245Z,8.00
2019-02-10T00:49:16.287Z,5.70
2019-02-10T00:50:16.293Z,6.50
2019-02-10T00:51:16.246Z,7.70
2019-02-10T00:52:16.245Z,8.50
2019-02-10T00:53:16.202Z,8.00
2019-02-10T00:54:16.161Z,7.60
2019-02-10T00:55:16.300Z,5.80
2019-02-10T00:56:16.126Z,6.70
2019-02-10T00:57:16.141Z,7.70
2019-02-10T00:58:16.130Z,7.50
2019-02-10T00:59:16.158Z,7.20
2019-02-10T01:00:16.121Z,7.90
2019-02-10T01:01:16.101Z,7.30
2019-02-10T01:02:16.085Z,8.70
2019-02-10T01:03:16.146Z,9.50
2019-02-10T01:04:16.085Z,7.10
2019-02-10T01:05:16.041Z,7.30
2019-02-10T01:06:16.103Z,7.20
2019-02-10T01:07:16.179Z,6.30
2019-02-10T01:08:16.085Z,6.80
2019-02-10T01:09:16.074Z,8.20
2019-02-10T01:10:16.041Z,7.60
2019-02-10T01:11:16.106Z,8.70
2019-02-10T01:12:16.068Z,7.60
2019-02-10T01:13:16.057Z,8.30
2019-02-10T01:14:15.970Z,8.80
2019-02-10T01:15:15.990Z,6.50
2019-02-10T01:16:15.955Z,7.30
2019-02-10T01:17:16.001Z,8.40
2019-02-10T01:18:25.389Z,7.80
2019-02-10T01:19:24.897Z,6.30
2019-02-10T01:20:24.953Z,6.00
2019-02-10T01:21:24.504Z,9.50
2019-02-10T01:22:15.846Z,7.00
2019-02-10T01:23:15.834Z,6.90
2019-02-10T01:24:25.029Z,8.10
2019-02-10T01:25:25.022Z,7.70
2019-02-10T01:26:25.037Z,8.10
2019-02-10T01:27:15.812Z,6.80
2019-02-10T01:28:15.781Z,7.50
2019-02-10T01:29:15.787Z,8.50
2019-02-10T01:30:15.911Z,9.30
2019-02-10T01:31:15.777Z,8.30
2019-02-10T01:32:15.769Z,8.40
2019-02-10T01:33:15.752Z,7.80
2019-02-10T01:34:15.725Z,7.40
2019-02-10T01:35:15.748Z,6.50
2019-02-10T01:36:15.726Z,6.70
2019-02-10T01:37:15.828Z,7.70
2019-02-10T01:38:15.711Z,6.30
2019-02-10T01:39:15.675Z,6.80
2019-02-10T01:40:15.725Z,7.10
2019-02-10T01:41:15.646Z,7.90
2019-02-10T01:42:15.630Z,7.90
2019-02-10T01:43:15.646Z,6.80
2019-02-10T01:44:15.617Z,10.00
2019-02-10T01:45:15.616Z,7.30
2019-02-10T01:46:15.615Z,9.10
2019-02-10T01:47:15.622Z,8.00
2019-02-10T01:48:15.595Z,6.80
2019-02-10T01:49:15.557Z,8.40
2019-02-10T01:50:15.595Z,8.30
2019-02-10T01:51:15.551Z,6.70
2019-02-10T01:52:15.553Z,9.70
2019-02-10T01:53:15.571Z,8.80
2019-02-10T01:54:15.510Z,8.60
2019-02-10T01:55:15.492Z,8.00
2019-02-10T01:56:15.512Z,9.00
2019-02-10T01:57:15.494Z,9.80
2019-02-10T01:58:15.485Z,7.10
2019-02-10T01:59:15.541Z,8.50
2019-02-10T02:00:15.474Z,8.30
2019-02-10T02:01:15.445Z,7.30
2019-02-10T02:02:15.437Z,7.30
2019-02-10T02:03:15.438Z,8.10
2019-02-10T02:04:15.437Z,8.00
2019-02-10T02:05:15.396Z,8.40
2019-02-10T02:06:15.390Z,8.00
2019-02-10T02:07:15.411Z,9.40
2019-02-10T02:08:15.401Z,7.80
2019-02-10T02:09:15.375Z,7.90
2019-02-10T02:10:15.364Z,8.90
2019-02-10T02:11:15.342Z,8.60
2019-02-10T02:12:15.331Z,7.30
2019-02-10T02:13:15.321Z,7.50
2019-02-10T02:14:15.313Z,9.00
2019-02-10T02:15:15.294Z,7.50
2019-02-10T02:16:15.365Z,8.40
2019-02-10T02:17:15.272Z,7.80
2019-02-10T02:18:15.272Z,9.10
2019-02-10T02:19:15.270Z,7.60
2019-02-10T02:20:15.256Z,9.30
2019-02-10T02:21:15.221Z,8.30
2019-02-10T02:22:15.220Z,8.30
2019-02-10T02:23:15.213Z,8.10
2019-02-10T02:24:15.222Z,9.00
2019-02-10T02:25:15.198Z,7.50
2019-02-10T02:26:15.328Z,10.30
2019-02-10T02:27:15.227Z,10.10
2019-02-10T02:28:15.174Z,7.80
2019-02-10T02:29:15.181Z,6.40
2019-02-10T02:30:15.178Z,6.40
2019-02-10T02:31:15.148Z,6.20
2019-02-10T02:32:15.187Z,12.10
2019-02-10T02:33:15.161Z,11.50
2019-02-10T02:34:15.133Z,8.70
2019-02-10T02:35:15.101Z,9.10
2019-02-10T02:36:15.173Z,8.80
2019-02-10T02:37:15.091Z,9.60
2019-02-10T02:38:15.092Z,9.60
2019-02-10T02:39:15.100Z,7.90
2019-02-10T02:40:15.058Z,8.90
2019-02-10T02:41:15.071Z,8.20
2019-02-10T02:42:15.050Z,10.30
2019-02-10T02:43:15.029Z,9.20
2019-02-10T02:44:15.067Z,8.30
2019-02-10T02:45:15.004Z,10.50
2019-02-10T02:46:15.039Z,8.90
2019-02-10T02:47:14.987Z,9.40
2019-02-10T02:48:14.999Z,10.80
2019-02-10T02:49:14.952Z,8.90
2019-02-10T02:50:14.955Z,8.30
2019-02-10T02:51:14.899Z,8.80
2019-02-10T02:52:14.931Z,9.90
2019-02-10T02:53:14.950Z,8.20
2019-02-10T02:54:14.881Z,9.40
2019-02-10T02:55:14.871Z,8.50
2019-02-10T02:56:14.858Z,9.50
2019-02-10T02:57:14.863Z,7.60
2019-02-10T02:58:14.869Z,9.00
2019-02-10T02:59:14.870Z,8.70
2019-02-10T03:00:14.835Z,8.40
2019-02-10T03:01:14.810Z,8.40
2019-02-10T03:02:14.792Z,9.20
2019-02-10T03:03:14.807Z,8.60
2019-02-10T03:04:14.775Z,9.20
2019-02-10T03:05:14.903Z,9.70
2019-02-10T03:06:14.799Z,8.50
2019-02-10T03:07:18.069Z,7.80
2019-02-10T03:08:14.766Z,8.30
2019-02-10T03:09:14.790Z,9.70
2019-02-10T03:10:14.728Z,10.00
2019-02-10T03:11:14.703Z,8.50
2019-02-10T03:12:14.728Z,8.60
2019-02-10T03:13:14.761Z,10.50
2019-02-10T03:14:14.736Z,8.60
2019-02-10T03:15:14.716Z,9.40
2019-02-10T03:16:14.671Z,10.40
2019-02-10T03:17:14.720Z,9.00
2019-02-10T03:18:14.693Z,7.60
2019-02-10T03:19:14.701Z,9.40
2019-02-10T03:20:14.636Z,8.60
2019-02-10T03:21:14.716Z,9.40
2019-02-10T03:22:14.599Z,8.80
2019-02-10T03:23:14.572Z,9.90
2019-02-10T03:24:14.554Z,10.20
2019-02-10T03:25:14.768Z,8.60
2019-02-10T03:26:14.604Z,8.00
2019-02-10T03:27:14.765Z,9.80
2019-02-10T03:28:14.563Z,7.90
2019-02-10T03:29:14.527Z,9.30
2019-02-10T03:30:14.560Z,8.60
2019-02-10T03:31:14.570Z,10.50
2019-02-10T03:32:14.493Z,8.00
2019-02-10T03:33:14.516Z,8.70
2019-02-10T03:34:14.462Z,7.70
2019-02-10T03:35:14.494Z,9.50
2019-02-10T03:36:14.486Z,9.80
2019-02-10T03:37:14.509Z,7.80
2019-02-10T03:38:14.426Z,8.60
2019-02-10T03:39:14.427Z,9.00
2019-02-10T03:40:14.428Z,9.20
2019-02-10T03:41:14.414Z,8.30
2019-02-10T03:42:14.400Z,8.80
2019-02-10T03:43:14.389Z,8.10
2019-02-10T03:44:14.341Z,10.60
2019-02-10T03:45:14.390Z,8.80
2019-02-10T03:46:14.323Z,8.90
2019-02-10T03:47:14.298Z,9.70
2019-02-10T03:48:14.326Z,9.30
2019-02-10T03:49:14.281Z,8.60
2019-02-10T03:50:14.367Z,10.60
2019-02-10T03:51:14.288Z,8.00
2019-02-10T03:52:14.465Z,9.30
2019-02-10T03:53:14.295Z,10.40
2019-02-10T03:54:14.674Z,9.30
2019-02-10T03:55:14.293Z,8.10
2019-02-10T03:56:14.265Z,9.90
2019-02-10T03:57:14.290Z,8.10
2019-02-10T03:58:14.217Z,8.20
2019-02-10T03:59:14.208Z,8.10
2019-02-10T04:00:14.212Z,11.90
2019-02-10T04:01:14.304Z,8.70
2019-02-10T04:02:14.159Z,11.50
2019-02-10T04:03:14.273Z,11.80
2019-02-10T04:04:14.137Z,10.50
2019-02-10T04:05:16.599Z,9.40
2019-02-10T04:06:14.170Z,9.40
2019-02-10T04:07:15.120Z,10.20
2019-02-10T04:08:16.672Z,8.50
2019-02-10T04:09:14.088Z,8.40
2019-02-10T04:10:14.189Z,9.30
2019-02-10T04:11:14.047Z,9.30
2019-02-10T04:12:14.058Z,10.80
2019-02-10T04:13:14.278Z,12.30
2019-02-10T04:14:15.090Z,10.30
2019-02-10T04:15:15.018Z,8.50
2019-02-10T04:16:14.077Z,11.50
2019-02-10T04:17:14.024Z,9.10
2019-02-10T04:18:14.064Z,9.50
2019-02-10T04:19:14.070Z,10.50
2019-02-10T04:20:14.022Z,10.80
2019-02-10T04:21:13.996Z,8.30
2019-02-10T04:22:13.934Z,10.70
2019-02-10T04:23:13.955Z,9.00
2019-02-10T04:24:13.919Z,8.40
2019-02-10T04:25:13.921Z,9.90
2019-02-10T04:26:13.997Z,10.30
2019-02-10T04:27:14.118Z,9.80
2019-02-10T04:28:13.895Z,8.80
2019-02-10T04:29:13.890Z,9.10
2019-02-10T04:30:13.898Z,10.70
2019-02-10T04:31:13.893Z,8.30
2019-02-10T04:32:13.843Z,10.40
2019-02-10T04:33:13.841Z,11.30
2019-02-10T04:34:13.861Z,8.80
2019-02-10T04:35:13.812Z,11.00
2019-02-10T04:37:30.973Z,9.90
2019-02-10T04:38:32.131Z,7.80
2019-02-10T04:39:30.854Z,9.30
2019-02-10T04:40:30.830Z,11.20
2019-02-10T04:41:30.836Z,12.70
2019-02-10T04:42:30.826Z,9.30
2019-02-10T04:43:30.836Z,9.20
2019-02-10T04:44:30.783Z,9.50
2019-02-10T04:45:30.776Z,12.20
2019-02-10T04:46:30.768Z,8.60
2019-02-10T04:47:30.819Z,8.30
2019-02-10T04:48:30.769Z,9.50
2019-02-10T04:49:31.216Z,7.30
2019-02-10T04:50:30.737Z,10.20
2019-02-10T04:51:30.739Z,11.40
2019-02-10T04:52:31.708Z,11.90
2019-02-10T04:53:32.155Z,9.90
2019-02-10T04:54:31.736Z,9.40
2019-02-10T04:55:31.166Z,11.10
2019-02-10T04:56:30.881Z,9.20
2019-02-10T04:57:30.977Z,8.70
2019-02-10T04:58:30.731Z,9.80
2019-02-10T04:59:32.321Z,10.70
2019-02-10T05:00:30.633Z,11.50
2019-02-10T05:01:30.615Z,9.30
2019-02-10T05:02:30.961Z,9.10
2019-02-10T05:03:31.024Z,10.50
2019-02-10T05:04:30.620Z,9.90
2019-02-10T05:05:31.568Z,9.00
2019-02-10T05:06:31.280Z,9.70
2019-02-10T05:07:33.838Z,12.00
2019-02-10T05:08:31.466Z,7.20
2019-02-10T05:09:32.421Z,10.80
2019-02-10T05:10:31.662Z,9.10
2019-02-10T05:11:32.410Z,10.60
2019-02-10T05:12:31.439Z,9.10
2019-02-10T05:13:31.057Z,9.30
2019-02-10T05:14:31.118Z,8.60
2019-02-10T05:15:30.466Z,8.70
2019-02-10T05:16:30.505Z,12.00
2019-02-10T05:17:30.471Z,9.40
2019-02-10T05:18:30.496Z,9.00
2019-02-10T05:19:30.466Z,8.50
2019-02-10T05:20:30.450Z,9.00
2019-02-10T05:21:30.409Z,9.20
2019-02-10T05:22:30.408Z,8.80
2019-02-10T05:23:30.393Z,12.30
2019-02-10T05:24:30.385Z,7.70
2019-02-10T05:25:30.512Z,7.90
2019-02-10T05:26:30.362Z,9.50
2019-02-10T05:27:30.352Z,9.50
2019-02-10T05:28:30.352Z,9.30
2019-02-10T05:29:30.342Z,10.20
2019-02-10T05:30:30.347Z,9.60
2019-02-10T05:31:30.304Z,10.10
2019-02-10T05:32:30.294Z,9.70
2019-02-10T05:33:30.290Z,7.90
2019-02-10T05:34:30.306Z,10.60
2019-02-10T05:35:30.337Z,10.10
2019-02-10T05:36:30.360Z,9.60
2019-02-10T05:37:30.250Z,9.30
2019-02-10T05:38:30.232Z,9.30
2019-02-10T05:39:30.234Z,9.40
2019-02-10T05:40:30.261Z,9.60
2019-02-10T05:41:30.252Z,10.50
2019-02-10T05:42:30.189Z,9.30
2019-02-10T05:43:30.187Z,10.40
2019-02-10T05:44:30.207Z,9.20
2019-02-10T05:45:30.166Z,10.40
2019-02-10T05:46:30.182Z,7.50
2019-02-10T05:47:30.129Z,9.20
2019-02-10T05:48:30.135Z,10.40
2019-02-10T05:49:30.174Z,8.10
2019-02-10T05:50:30.107Z,10.20
2019-02-10T05:51:30.111Z,9.60
2019-02-10T05:52:32.674Z,11.00
2019-02-10T05:53:30.809Z,10.60
2019-02-10T05:54:30.137Z,11.80
2019-02-10T05:55:30.078Z,9.50
2019-02-10T05:56:30.168Z,10.40
2019-02-10T05:57:30.114Z,10.60
2019-02-10T05:58:30.059Z,10.30
2019-02-10T05:59:30.011Z,8.20
2019-02-10T06:00:30.031Z,8.20
2019-02-10T06:01:29.991Z,9.00
2019-02-10T06:02:29.991Z,9.90
2019-02-10T06:03:29.987Z,9.00
2019-02-10T06:04:29.987Z,9.70
2019-02-10T06:05:29.940Z,10.60
2019-02-10T06:06:29.936Z,8.50
2019-02-10T06:07:29.927Z,8.10
2019-02-10T06:08:29.910Z,8.10
2019-02-10T06:09:29.922Z,9.00
2019-02-10T06:10:29.907Z,10.40
2019-02-10T06:11:29.868Z,7.00
2019-02-10T06:12:29.900Z,8.40
2019-02-10T06:13:29.856Z,10.50
2019-02-10T06:14:30.018Z,10.70
2019-02-10T06:15:29.924Z,9.00
2019-02-10T06:16:29.826Z,12.40
2019-02-10T06:17:29.828Z,10.70
2019-02-10T06:18:29.791Z,7.50
2019-02-10T06:19:29.792Z,7.70
2019-02-10T06:20:29.819Z,9.40
2019-02-10T06:21:29.811Z,9.60
2019-02-10T06:22:29.758Z,9.10
2019-02-10T06:23:29.756Z,8.40
2019-02-10T06:24:29.774Z,8.20
2019-02-10T06:25:29.748Z,10.20
2019-02-10T06:26:29.729Z,9.10
2019-02-10T06:27:29.709Z,8.90
2019-02-10T06:28:29.740Z,8.10
2019-02-10T06:29:29.687Z,8.50
2019-02-10T06:30:29.733Z,7.40
2019-02-10T06:31:29.689Z,9.00
2019-02-10T06:32:29.656Z,7.10
2019-02-10T06:33:29.663Z,9.20
2019-02-10T06:34:29.641Z,9.10
2019-02-10T06:35:29.619Z,8.30
2019-02-10T06:36:29.649Z,8.90
2019-02-10T06:37:29.623Z,9.20
2019-02-10T06:38:29.605Z,11.20
2019-02-10T06:39:29.589Z,11.20
2019-02-10T06:40:29.592Z,8.00
2019-02-10T06:41:29.560Z,10.00
2019-02-10T06:42:29.538Z,11.10
2019-02-10T06:43:29.546Z,8.10
2019-02-10T06:44:29.547Z,8.10
2019-02-10T06:45:29.537Z,9.00
2019-02-10T06:46:29.543Z,7.20
2019-02-10T06:47:29.503Z,8.00
2019-02-10T06:48:29.491Z,9.90
2019-02-10T06:49:29.473Z,8.50
2019-02-10T06:50:29.482Z,9.00
2019-02-10T06:51:29.465Z,9.40
2019-02-10T06:52:29.467Z,8.30
2019-02-10T06:53:29.449Z,10.50
2019-02-10T06:54:29.431Z,8.30
2019-02-10T06:55:29.413Z,9.80
2019-02-10T06:56:29.394Z,7.70
2019-02-10T06:57:29.419Z,9.70
2019-02-10T06:58:29.394Z,10.90
2019-02-10T06:59:29.370Z,11.20
2019-02-10T07:00:29.363Z,8.90
2019-02-10T07:01:29.421Z,9.10
2019-02-10T07:02:29.374Z,9.80
2019-02-10T07:03:29.365Z,10.50
2019-02-10T07:04:29.335Z,11.30
2019-02-10T07:05:29.344Z,10.10
2019-02-10T07:06:29.304Z,9.10
2019-02-10T07:07:29.296Z,9.70
2019-02-10T07:08:30.719Z,8.60
2019-02-10T07:09:29.275Z,11.20
2019-02-10T07:10:29.263Z,8.80
2019-02-10T07:11:29.284Z,9.10
2019-02-10T07:12:29.283Z,8.40
2019-02-10T07:13:29.248Z,12.40
2019-02-10T07:14:29.236Z,10.40
2019-02-10T07:15:29.234Z,8.70
2019-02-10T07:16:29.202Z,9.80
2019-02-10T07:17:29.208Z,11.00
2019-02-10T07:18:29.221Z,8.20
2019-02-10T07:19:29.173Z,9.90
2019-02-10T07:20:29.147Z,9.40
2019-02-10T07:21:29.148Z,10.10
2019-02-10T07:22:29.134Z,9.20
2019-02-10T07:23:29.133Z,9.00
2019-02-10T07:24:29.160Z,8.50
2019-02-10T07:25:29.105Z,10.50
2019-02-10T07:26:29.091Z,11.10
2019-02-10T07:27:29.106Z,8.10
2019-02-10T07:28:29.076Z,9.20
2019-02-10T07:29:29.079Z,9.70
2019-02-10T07:30:29.086Z,9.50
2019-02-10T07:31:29.045Z,11.40
2019-02-10T07:32:29.035Z,11.50
2019-02-10T07:33:29.030Z,10.20
2019-02-10T07:34:29.052Z,9.40
2019-02-10T07:35:29.034Z,11.20
2019-02-10T07:36:28.998Z,10.50
2019-02-10T07:37:28.981Z,11.10
2019-02-10T07:38:28.976Z,7.70
2019-02-10T07:39:28.969Z,9.30
2019-02-10T07:40:29.005Z,10.30
2019-02-10T07:41:28.926Z,11.60
2019-02-10T07:42:28.925Z,11.10
2019-02-10T07:43:28.957Z,8.90
2019-02-10T07:44:28.922Z,10.30
2019-02-10T07:45:28.909Z,11.00
2019-02-10T07:46:28.894Z,10.10
2019-02-10T07:47:28.897Z,9.40
2019-02-10T07:48:28.895Z,10.60
2019-02-10T07:49:28.869Z,11.40
2019-02-10T07:50:28.904Z,10.80
2019-02-10T07:51:28.885Z,8.90
2019-02-10T07:52:39.280Z,9.60
2019-02-10T07:54:51.190Z,10.60
2019-02-10T07:55:51.194Z,10.10
2019-02-10T07:56:51.210Z,8.90
2019-02-10T07:57:51.172Z,10.70
2019-02-10T07:58:51.161Z,11.40
2019-02-10T07:59:51.137Z,10.60
2019-02-10T08:00:51.127Z,8.50
2019-02-10T08:01:51.128Z,10.90
2019-02-10T08:02:51.134Z,10.30
2019-02-10T08:03:51.099Z,9.70
2019-02-10T08:04:51.081Z,10.80
2019-02-10T08:05:51.076Z,9.10
2019-02-10T08:06:51.123Z,9.50
2019-02-10T08:07:51.056Z,12.00
2019-02-10T08:08:51.054Z,11.90
2019-02-10T08:09:51.036Z,10.60
2019-02-10T08:10:51.039Z,9.40
2019-02-10T08:11:51.008Z,10.70
2019-02-10T08:12:51.018Z,9.40
2019-02-10T08:13:50.992Z,11.20
2019-02-10T08:14:51.001Z,13.50
2019-02-10T08:15:50.973Z,9.80
2019-02-10T08:16:50.984Z,10.20
2019-02-10T08:17:59.871Z,10.00
2019-02-10T08:18:50.947Z,10.10
2019-02-10T08:20:00.409Z,9.80
2019-02-10T08:22:08.356Z,8.80
2019-02-10T08:23:08.361Z,8.30
2019-02-10T08:24:17.216Z,10.60
2019-02-10T08:25:17.280Z,8.70
2019-02-10T08:26:17.772Z,11.40
2019-02-10T08:27:17.811Z,10.20
2019-02-10T08:28:17.847Z,12.00
2019-02-10T08:29:17.377Z,9.80
2019-02-10T08:30:17.420Z,11.30
2019-02-10T08:31:17.436Z,10.60
2019-02-10T08:32:17.474Z,9.00
2019-02-10T08:34:25.636Z,8.30
2019-02-10T08:35:36.055Z,9.60
2019-02-10T08:36:34.054Z,11.50
2019-02-10T08:38:35.715Z,10.80
2019-02-10T08:39:35.817Z,7.10
2019-02-10T08:40:35.714Z,10.10
2019-02-10T08:41:35.754Z,10.20
2019-02-10T08:42:35.744Z,10.90
2019-02-10T08:43:35.663Z,9.20
2019-02-10T08:44:35.648Z,10.70
2019-02-10T08:45:35.648Z,9.80
2019-02-10T08:46:35.681Z,9.80
2019-02-10T08:47:35.618Z,11.90
2019-02-10T08:48:35.628Z,16.40
2019-02-10T08:49:35.614Z,10.20
2019-02-10T08:50:35.583Z,12.40
2019-02-10T08:51:35.581Z,12.80
2019-02-10T08:52:35.563Z,14.80
2019-02-10T08:53:35.664Z,11.20
2019-02-10T08:54:35.542Z,11.10
2019-02-10T08:55:35.545Z,11.40
2019-02-10T08:56:36.636Z,12.60
2019-02-10T08:57:35.530Z,11.70
2019-02-10T08:58:35.517Z,13.70
2019-02-10T08:59:35.510Z,12.70
2019-02-10T09:00:35.508Z,12.50
2019-02-10T09:01:35.474Z,10.40
2019-02-10T09:02:35.461Z,10.00
2019-02-10T09:03:35.481Z,10.50
2019-02-10T09:04:35.463Z,11.20
2019-02-10T09:05:35.425Z,11.10
2019-02-10T09:06:35.439Z,11.80
2019-02-10T09:07:35.430Z,12.90
2019-02-10T09:08:35.407Z,11.80
2019-02-10T09:09:35.407Z,14.30
2019-02-10T09:10:35.424Z,11.70
2019-02-10T09:11:35.395Z,9.40
2019-02-10T09:12:35.365Z,10.40
2019-02-10T09:13:35.346Z,10.90
2019-02-10T09:14:35.345Z,11.30
2019-02-10T09:15:35.334Z,14.00
2019-02-10T09:16:35.330Z,12.30
2019-02-10T09:17:35.325Z,12.80
2019-02-10T09:18:35.313Z,12.60
2019-02-10T09:19:35.281Z,13.50
2019-02-10T09:20:35.307Z,11.50
2019-02-10T09:21:35.267Z,14.70
2019-02-10T09:22:35.256Z,14.70
2019-02-10T09:23:35.253Z,11.90
2019-02-10T09:24:35.250Z,13.70
2019-02-10T09:25:35.242Z,13.10
2019-02-10T09:26:35.227Z,13.00
2019-02-10T09:27:35.217Z,15.20
2019-02-10T09:28:35.204Z,12.20
2019-02-10T09:29:35.187Z,13.60
2019-02-10T09:30:35.215Z,12.80
2019-02-10T09:31:35.174Z,11.40
2019-02-10T09:32:35.152Z,14.20
2019-02-10T09:33:35.171Z,13.90
2019-02-10T09:34:35.141Z,13.30
2019-02-10T09:35:35.147Z,13.00
2019-02-10T09:36:35.118Z,13.80
2019-02-10T09:37:35.100Z,14.50
2019-02-10T09:38:35.093Z,13.10
2019-02-10T09:39:35.115Z,13.50
2019-02-10T09:40:35.087Z,12.70
2019-02-10T09:41:35.068Z,16.10
2019-02-10T09:42:35.057Z,14.50
2019-02-10T09:43:35.070Z,11.70
2019-02-10T09:44:35.059Z,12.20
2019-02-10T09:45:35.034Z,11.30
2019-02-10T09:46:35.073Z,13.70
2019-02-10T09:47:35.010Z,15.00
2019-02-10T09:48:35.015Z,15.20
2019-02-10T09:49:34.996Z,15.80
2019-02-10T09:50:35.004Z,15.00
2019-02-10T09:51:36.839Z,17.00
2019-02-10T09:52:37.443Z,15.20
2019-02-10T09:53:37.115Z,12.70
2019-02-10T09:54:35.791Z,12.80
2019-02-10T09:55:36.383Z,11.30
2019-02-10T09:56:57.887Z,12.50
2019-02-10T09:57:39.373Z,13.10
2019-02-10T09:58:44.221Z,14.30
2019-02-10T09:59:37.842Z,14.00
2019-02-10T10:00:42.727Z,12.20
2019-02-10T10:01:34.971Z,15.00
2019-02-10T10:02:35.485Z,14.90
2019-02-10T10:03:34.978Z,13.70
2019-02-10T10:04:34.872Z,12.70
2019-02-10T10:05:35.755Z,14.00
2019-02-10T10:06:34.824Z,13.10
2019-02-10T10:07:36.147Z,14.90
2019-02-10T10:08:34.809Z,18.20
2019-02-10T10:09:34.817Z,16.60
2019-02-10T10:10:34.795Z,15.30
2019-02-10T10:11:34.789Z,17.00
2019-02-10T10:12:34.754Z,14.80
2019-02-10T10:13:34.740Z,15.40
2019-02-10T10:14:34.814Z,14.80
2019-02-10T10:15:34.748Z,11.90
2019-02-10T10:16:34.777Z,12.00
2019-02-10T10:17:34.703Z,13.90
2019-02-10T10:18:34.700Z,14.30
2019-02-10T10:19:34.675Z,12.20
2019-02-10T10:20:34.658Z,13.70
2019-02-10T10:21:34.671Z,12.60
2019-02-10T10:22:34.635Z,13.40
2019-02-10T10:23:34.705Z,14.00
2019-02-10T10:24:34.638Z,15.30
2019-02-10T10:25:34.719Z,15.00
2019-02-10T10:26:34.626Z,15.10
2019-02-10T10:27:34.622Z,13.50
2019-02-10T10:28:34.619Z,14.50
2019-02-10T10:29:34.561Z,12.60
2019-02-10T10:30:34.582Z,12.50
2019-02-10T10:31:34.598Z,11.80
2019-02-10T10:32:34.553Z,15.30
2019-02-10T10:33:34.571Z,14.20
2019-02-10T10:34:34.585Z,14.50
2019-02-10T10:35:34.518Z,14.10
2019-02-10T10:36:44.245Z,13.70
2019-02-10T10:37:34.469Z,15.00
2019-02-10T10:38:34.480Z,13.60
2019-02-10T10:39:34.467Z,12.70
2019-02-10T10:40:34.530Z,13.20
2019-02-10T10:41:34.450Z,14.20
2019-02-10T10:42:34.449Z,14.40
2019-02-10T10:43:34.490Z,13.50
2019-02-10T10:44:34.463Z,13.00
2019-02-10T10:45:34.440Z,14.50
2019-02-10T10:46:34.426Z,14.50
2019-02-10T10:47:34.430Z,12.00
2019-02-10T10:48:34.397Z,15.70
2019-02-10T10:49:34.393Z,13.90
2019-02-10T10:50:34.365Z,14.50
2019-02-10T10:51:34.369Z,15.60
2019-02-10T10:52:34.345Z,13.50
2019-02-10T10:53:34.361Z,14.40
2019-02-10T10:54:42.419Z,17.10
2019-02-10T10:55:35.293Z,14.20
2019-02-10T10:56:34.328Z,12.30
2019-02-10T10:57:34.278Z,12.90
2019-02-10T10:58:34.272Z,14.30
2019-02-10T10:59:34.284Z,12.40
2019-02-10T11:00:34.274Z,11.70
2019-02-10T11:01:34.252Z,13.80
2019-02-10T11:02:34.225Z,13.10
2019-02-10T11:03:34.236Z,14.10
2019-02-10T11:04:34.219Z,15.50
2019-02-10T11:05:34.234Z,16.80
2019-02-10T11:06:34.241Z,11.00
2019-02-10T11:07:34.265Z,12.50
2019-02-10T11:08:34.167Z,11.10
2019-02-10T11:09:35.656Z,13.30
2019-02-10T11:10:34.179Z,12.30
2019-02-10T11:11:34.179Z,13.30
2019-02-10T11:12:34.137Z,15.40
2019-02-10T11:13:34.110Z,15.60
2019-02-10T11:14:34.112Z,13.10
2019-02-10T11:15:34.103Z,13.00
2019-02-10T11:16:34.123Z,12.30
2019-02-10T11:17:34.119Z,11.30
2019-02-10T11:18:34.113Z,11.50
2019-02-10T11:19:34.074Z,10.40
2019-02-10T11:20:34.051Z,11.80
2019-02-10T11:21:34.045Z,13.90
2019-02-10T11:22:34.030Z,12.60
2019-02-10T11:23:34.038Z,12.70
2019-02-10T11:24:33.995Z,12.90
2019-02-10T11:25:33.983Z,13.10
2019-02-10T11:26:33.994Z,13.60
2019-02-10T11:27:34.040Z,11.70
2019-02-10T11:28:33.964Z,12.90
2019-02-10T11:29:33.985Z,12.00
2019-02-10T11:30:33.955Z,12.30
2019-02-10T11:31:33.923Z,10.30
2019-02-10T11:32:33.952Z,9.40
2019-02-10T11:33:34.079Z,10.40
2019-02-10T11:34:33.910Z,11.70
2019-02-10T11:35:33.962Z,11.20
2019-02-10T11:36:33.899Z,9.70
2019-02-10T11:37:33.870Z,9.00
2019-02-10T11:38:33.905Z,10.90
2019-02-10T11:39:33.857Z,9.10
2019-02-10T11:40:33.868Z,9.50
2019-02-10T11:41:33.847Z,9.00
2019-02-10T11:42:33.833Z,9.90
2019-02-10T11:43:34.163Z,8.90
2019-02-10T11:44:33.851Z,10.50
2019-02-10T11:45:33.784Z,9.00
2019-02-10T11:46:33.804Z,10.10
2019-02-10T11:47:33.817Z,9.20
2019-02-10T11:48:33.771Z,8.00
2019-02-10T11:49:33.749Z,10.30
2019-02-10T11:50:33.787Z,10.00
2019-02-10T11:51:33.721Z,8.20
2019-02-10T11:52:33.747Z,8.80
2019-02-10T11:53:33.709Z,9.90
2019-02-10T11:54:33.689Z,9.30
2019-02-10T11:55:34.163Z,9.60
2019-02-10T11:56:33.669Z,11.00
2019-02-10T11:57:33.661Z,9.40
2019-02-10T11:58:33.673Z,8.10
2019-02-10T11:59:33.755Z,8.20
2019-02-10T12:00:33.706Z,8.40
2019-02-10T12:01:33.621Z,10.50
2019-02-10T12:02:38.087Z,8.20
2019-02-10T12:03:33.604Z,9.60
2019-02-10T12:04:33.603Z,10.10
2019-02-10T12:05:33.770Z,7.00
2019-02-10T12:06:33.988Z,7.60
2019-02-10T12:07:33.727Z,8.50
2019-02-10T12:08:35.809Z,6.60
2019-02-10T12:09:33.771Z,6.30
2019-02-10T12:10:33.855Z,7.60
2019-02-10T12:11:33.675Z,6.40
2019-02-10T12:12:33.945Z,7.90
2019-02-10T12:13:33.879Z,6.70
2019-02-10T12:14:33.764Z,7.70
2019-02-10T12:15:33.733Z,8.30
2019-02-10T12:16:33.884Z,6.20
2019-02-10T12:17:33.539Z,7.50
2019-02-10T12:18:33.498Z,7.20
2019-02-10T12:19:33.541Z,8.10
2019-02-10T12:20:33.460Z,7.60
2019-02-10T12:21:33.432Z,6.20
2019-02-10T12:22:33.482Z,6.70
2019-02-10T12:23:33.447Z,6.10
2019-02-10T12:24:33.395Z,6.60
2019-02-10T12:25:33.478Z,9.50
2019-02-10T12:26:33.381Z,7.50
2019-02-10T12:27:33.368Z,8.40
2019-02-10T12:28:33.390Z,7.50
2019-02-10T12:29:33.373Z,6.10
2019-02-10T12:30:33.368Z,7.70
2019-02-10T12:31:33.395Z,7.20
2019-02-10T12:32:33.302Z,6.90
2019-02-10T12:33:33.388Z,5.90
2019-02-10T12:34:33.303Z,5.80
2019-02-10T12:35:34.073Z,6.00
2019-02-10T12:36:33.304Z,6.90
2019-02-10T12:37:33.273Z,6.30
2019-02-10T12:38:33.248Z,5.80
2019-02-10T12:39:33.454Z,6.90
2019-02-10T12:40:33.292Z,3.80
2019-02-10T12:41:33.310Z,5.70
2019-02-10T12:42:33.246Z,7.60
2019-02-10T12:43:33.213Z,6.30
2019-02-10T12:44:33.174Z,6.10
2019-02-10T12:45:33.260Z,6.50
2019-02-10T12:46:33.152Z,8.80
2019-02-10T12:47:33.173Z,5.50
2019-02-10T12:48:33.135Z,6.30
2019-02-10T12:49:33.154Z,6.50
2019-02-10T12:50:33.184Z,7.00
2019-02-10T12:51:33.140Z,6.40
2019-02-10T12:52:33.244Z,6.60
2019-02-10T12:53:33.144Z,5.50
2019-02-10T12:54:33.084Z,5.80
2019-02-10T12:55:33.110Z,6.10
2019-02-10T12:56:33.116Z,5.60
2019-02-10T12:57:33.096Z,6.10
2019-02-10T12:58:33.043Z,6.40
2019-02-10T12:59:33.023Z,5.80
2019-02-10T13:00:33.008Z,5.10
2019-02-10T13:01:32.989Z,5.40
2019-02-10T13:02:33.026Z,6.00
2019-02-10T13:03:33.010Z,6.20
2019-02-10T13:04:33.014Z,5.50
2019-02-10T13:05:33.049Z,5.40
2019-02-10T13:06:33.153Z,4.80
2019-02-10T13:07:33.191Z,4.60
2019-02-10T13:08:32.912Z,6.20
2019-02-10T13:09:32.914Z,6.10
2019-02-10T13:10:32.875Z,6.20
2019-02-10T13:11:32.887Z,5.40
2019-02-10T13:12:32.863Z,6.70
2019-02-10T13:13:32.850Z,5.30
2019-02-10T13:14:32.933Z,4.90